Time;durP1;ratioP1;P1;durP2;ratioP2;P2;SDS_P1;SDS_P2;PMS_P1;PMS_P2;Temp;Humidity;BMP_temperature;BMP_pressure;BME280_temperature;BME280_humidity;BME280_pressure;Samples;Min_cycle;Max_cycle;Signal;HPM_P1;HPM_P2
2022/01/06 00:01:07;;;;;;;3.38;0.75;;;20.40;48.70;;;;;;4974069;28;20054;-87
2022/01/06 00:03:34;;;;;;;2.35;0.68;;;21.50;49.30;;;;;;4991814;28;20676;-87
2022/01/06 00:06:03;;;;;;;2.22;0.68;;;20.40;48.70;;;;;;4974968;28;20490;-86
2022/01/06 00:08:29;;;;;;;2.45;0.63;;;20.30;48.70;;;;;;5006725;28;20090;-86
2022/01/06 00:10:55;;;;;;;1.83;0.50;;;20.40;48.80;;;;;;4974752;28;20046;-87
2022/01/06 00:13:29;;;;;;;3.50;0.90;;;20.30;48.70;;;;;;4974706;28;20062;-87
2022/01/06 00:16:06;;;;;;;2.20;0.60;;;20.30;48.80;;;;;;5006347;28;20393;-87
2022/01/06 00:23:04;;;;;;;2.88;0.60;;;20.30;48.80;;;;;;4974520;28;20089;-87
2022/01/06 00:24:04;;;;;;;3.00;0.60;;;20.30;48.80;;;;;;4975944;28;20477;-87
2022/01/06 00:26:30;;;;;;;2.38;0.60;;;20.20;48.80;;;;;;4974303;28;20165;-86
2022/01/06 00:28:55;;;;;;;2.15;0.63;;;20.20;48.80;;;;;;4972580;28;20501;-86
2022/01/06 00:31:21;;;;;;;2.45;0.60;;;20.20;48.80;;;;;;4973775;28;20046;-87
2022/01/06 00:33:46;;;;;;;3.58;0.70;;;20.20;48.80;;;;;;4974093;28;20050;-87
2022/01/06 00:36:12;;;;;;;2.80;0.50;;;20.20;48.80;;;;;;4973625;28;20065;-86
2022/01/06 00:38:38;;;;;;;2.88;0.60;;;21.10;49.40;;;;;;4973091;28;20399;-87
2022/01/06 00:41:03;;;;;;;1.60;0.52;;;20.20;48.90;;;;;;4990415;28;20053;-86
2022/01/06 00:43:29;;;;;;;2.25;0.50;;;20.90;49.30;;;;;;4972835;28;20042;-86
2022/01/06 00:45:54;;;;;;;3.22;0.60;;;20.20;48.90;;;;;;4990451;28;20050;-86
2022/01/06 00:48:20;;;;;;;1.85;0.50;;;20.20;48.90;;;;;;4989830;28;20502;-86
2022/01/06 00:50:45;;;;;;;2.03;0.55;;;20.10;48.90;;;;;;4988814;28;20414;-87
2022/01/06 00:53:11;;;;;;;2.35;0.50;;;20.10;48.90;;;;;;4973743;28;20058;-86
2022/01/06 00:55:37;;;;;;;1.92;0.50;;;20.10;48.90;;;;;;4989696;28;20113;-85
2022/01/06 00:58:03;;;;;;;2.67;0.63;;;20.10;48.90;;;;;;4972950;28;20042;-87
2022/01/06 01:00:37;;;;;;;3.70;0.60;;;20.60;49.20;;;;;;4973931;28;20566;-88
2022/01/06 01:03:04;;;;;;;1.90;0.50;;;20.10;49.00;;;;;;4973336;28;20053;-87
2022/01/06 01:05:30;;;;;;;2.03;0.68;;;20.10;49.00;;;;;;4988990;28;20092;-87
2022/01/06 01:07:56;;;;;;;2.20;0.60;;;20.00;49.00;;;;;;4989184;28;20070;-87
2022/01/06 01:10:21;;;;;;;2.47;0.50;;;20.00;48.90;;;;;;4988910;28;20057;-86
2022/01/06 01:12:48;;;;;;;2.83;0.57;;;20.00;49.00;;;;;;4973503;28;20053;-86
2022/01/06 01:15:19;;;;;;;2.05;0.50;;;20.00;49.00;;;;;;4989702;28;20046;-88
2022/01/06 01:17:49;;;;;;;2.45;0.60;;;20.00;49.00;;;;;;4972793;28;20545;-87
2022/01/06 01:20:16;;;;;;;2.17;0.40;;;20.00;49.00;;;;;;4989616;28;20598;-87
2022/01/06 01:22:41;;;;;;;1.05;0.30;;;20.00;49.00;;;;;;4989582;28;20051;-87
2022/01/06 01:25:07;;;;;;;2.20;0.57;;;20.00;49.10;;;;;;4989074;28;20431;-88
2022/01/06 01:27:38;;;;;;;2.08;0.57;;;20.00;49.00;;;;;;4974779;28;20046;-90
2022/01/06 01:30:10;;;;;;;1.90;0.40;;;20.00;49.10;;;;;;4989053;28;20131;-86
2022/01/06 01:32:37;;;;;;;1.05;0.32;;;19.90;49.00;;;;;;4991759;28;20049;-86
2022/01/06 01:35:09;;;;;;;2.05;0.47;;;20.70;49.40;;;;;;4992491;28;20079;-86
2022/01/06 01:37:36;;;;;;;2.92;0.70;;;19.90;49.00;;;;;;4992206;28;20042;-86
2022/01/06 01:40:02;;;;;;;3.35;0.60;;;19.90;49.10;;;;;;4991939;28;20632;-86
2022/01/06 01:42:28;;;;;;;1.65;0.35;;;19.90;49.10;;;;;;4992304;28;20057;-87
2022/01/06 01:44:53;;;;;;;1.27;0.40;;;19.90;49.10;;;;;;4976178;28;20034;-87
2022/01/06 01:50:09;;;;;;;2.22;0.65;;;19.90;49.10;;;;;;4991868;28;20096;-87
2022/01/06 01:52:34;;;;;;;1.08;0.30;;;19.90;49.10;;;;;;4991199;28;20120;-86
2022/01/06 01:55:00;;;;;;;1.90;0.47;;;19.80;49.10;;;;;;4975978;28;20049;-86
2022/01/06 01:57:26;;;;;;;1.42;0.40;;;19.80;49.10;;;;;;4992249;28;20120;-87
2022/01/06 01:59:51;;;;;;;2.05;0.52;;;19.80;49.10;;;;;;4975364;28;20058;-86
2022/01/06 02:02:17;;;;;;;1.60;0.47;;;19.80;49.10;;;;;;4975641;28;20044;-87
2022/01/06 02:04:42;;;;;;;1.55;0.30;;;19.80;49.80;;;;;;4992342;28;20058;-86
2022/01/06 02:07:08;;;;;;;2.80;0.60;;;19.80;49.10;;;;;;4971635;28;20045;-86
2022/01/06 02:09:33;;;;;;;1.25;0.30;;;19.80;49.10;;;;;;4972307;28;20053;-87
2022/01/06 02:12:00;;;;;;;1.90;0.40;;;19.80;49.20;;;;;;4972778;28;20046;-87
2022/01/06 02:14:26;;;;;;;1.30;0.40;;;19.80;49.20;;;;;;4971978;28;20050;-86
2022/01/06 02:16:54;;;;;;;1.77;0.30;;;19.70;49.10;;;;;;4972390;28;20625;-86
2022/01/06 02:19:19;;;;;;;1.30;0.30;;;19.70;49.10;;;;;;4972540;28;20479;-87
2022/01/06 02:21:45;;;;;;;2.25;0.50;;;19.70;49.10;;;;;;4972105;28;20057;-86
2022/01/06 02:24:10;;;;;;;1.70;0.38;;;19.70;49.10;;;;;;4999516;28;20576;-87
2022/01/06 02:26:36;;;;;;;1.73;0.45;;;19.70;49.20;;;;;;5007967;28;20520;-86
2022/01/06 02:29:02;;;;;;;2.25;0.40;;;19.70;49.20;;;;;;5007495;28;20127;-85
2022/01/06 02:31:27;;;;;;;2.45;0.57;;;19.70;49.20;;;;;;4983572;28;20050;-86
2022/01/06 02:33:53;;;;;;;1.63;0.32;;;19.70;49.20;;;;;;4998949;28;20077;-86
2022/01/06 02:36:19;;;;;;;2.67;0.50;;;19.90;49.30;;;;;;4991327;28;20124;-85
2022/01/06 02:38:45;;;;;;;1.42;0.30;;;19.70;49.20;;;;;;4991556;28;20056;-86
2022/01/06 02:41:11;;;;;;;2.30;0.40;;;19.70;49.20;;;;;;4991578;28;20413;-86
2022/01/06 02:43:37;;;;;;;2.70;0.50;;;19.60;49.20;;;;;;4991022;28;20054;-85
2022/01/06 02:46:03;;;;;;;1.63;0.40;;;19.60;49.30;;;;;;4991634;28;20053;-86
2022/01/06 02:48:29;;;;;;;1.40;0.40;;;19.60;49.20;;;;;;4991601;28;20043;-86
2022/01/06 02:50:54;;;;;;;1.40;0.40;;;19.60;49.30;;;;;;4991450;28;20483;-85
2022/01/06 02:53:20;;;;;;;1.00;0.35;;;19.60;49.30;;;;;;4995832;28;20089;-85
2022/01/06 02:55:50;;;;;;;1.55;0.30;;;19.60;49.30;;;;;;4995072;28;20545;-85
2022/01/06 02:58:20;;;;;;;2.72;0.40;;;19.60;49.30;;;;;;4995403;28;20050;-85
2022/01/06 03:00:46;;;;;;;1.33;0.22;;;19.60;49.30;;;;;;4995204;28;20050;-85
2022/01/06 03:03:11;;;;;;;1.85;0.40;;;19.60;49.30;;;;;;5011817;28;20053;-84
2022/01/06 03:05:39;;;;;;;2.30;0.30;;;19.60;49.30;;;;;;4995290;28;20452;-85
2022/01/06 03:08:05;;;;;;;1.90;0.30;;;19.60;49.30;;;;;;4995071;28;20137;-85
2022/01/06 03:10:35;;;;;;;1.85;0.30;;;19.60;49.30;;;;;;4994414;28;20125;-85
2022/01/06 03:13:01;;;;;;;0.98;0.30;;;19.60;49.40;;;;;;4994954;28;20138;-85
2022/01/06 03:15:26;;;;;;;0.98;0.20;;;19.60;49.30;;;;;;4995013;28;20116;-85
2022/01/06 03:17:55;;;;;;;1.83;0.40;;;19.60;49.40;;;;;;4994399;28;20521;-85
2022/01/06 03:20:23;;;;;;;2.20;0.40;;;19.60;49.40;;;;;;4994705;28;20054;-85
2022/01/06 03:22:49;;;;;;;1.58;0.30;;;19.60;49.40;;;;;;4994548;28;20054;-86
2022/01/06 03:25:15;;;;;;;1.73;0.30;;;19.60;49.40;;;;;;4976710;28;20160;-85
2022/01/06 03:27:41;;;;;;;1.33;0.30;;;19.60;49.40;;;;;;4975107;28;20465;-86
2022/01/06 03:30:11;;;;;;;1.38;0.22;;;19.60;49.40;;;;;;4975242;28;20042;-86
2022/01/06 03:32:36;;;;;;;1.50;0.35;;;19.60;49.40;;;;;;4974306;28;20414;-86
2022/01/06 03:35:02;;;;;;;1.30;0.30;;;19.60;49.40;;;;;;4975189;28;20057;-85
2022/01/06 03:37:28;;;;;;;1.50;0.30;;;19.60;49.40;;;;;;4974995;28;20054;-85
2022/01/06 03:39:53;;;;;;;2.25;0.30;;;19.60;49.40;;;;;;4974305;28;20046;-85
2022/01/06 03:42:19;;;;;;;1.45;0.30;;;19.60;49.40;;;;;;4974818;28;20050;-86
2022/01/06 03:44:44;;;;;;;1.63;0.40;;;19.60;49.40;;;;;;4974833;28;20049;-85
2022/01/06 03:47:10;;;;;;;1.40;0.30;;;19.60;49.40;;;;;;4973839;28;20049;-85
2022/01/06 03:49:36;;;;;;;1.33;0.40;;;19.60;49.40;;;;;;4974778;28;20181;-86
2022/01/06 03:52:01;;;;;;;1.27;0.35;;;19.60;49.40;;;;;;4974579;28;20132;-86
2022/01/06 03:54:27;;;;;;;0.68;0.20;;;19.60;49.40;;;;;;4991452;28;20167;-86
2022/01/06 03:56:53;;;;;;;1.02;0.20;;;19.60;49.40;;;;;;4992677;28;20125;-86
2022/01/06 03:59:18;;;;;;;1.20;0.20;;;19.60;49.40;;;;;;4991394;28;20053;-86
2022/01/06 04:01:44;;;;;;;1.42;0.30;;;19.50;49.40;;;;;;4974575;28;20526;-86
2022/01/06 04:04:10;;;;;;;0.55;0.20;;;19.50;49.40;;;;;;4973614;28;20046;-86
2022/01/06 04:06:36;;;;;;;1.23;0.20;;;19.60;49.40;;;;;;4973927;28;20050;-86
2022/01/06 04:09:02;;;;;;;1.10;0.30;;;19.50;49.40;;;;;;4958780;28;20045;-86
2022/01/06 04:11:28;;;;;;;1.67;0.38;;;19.60;49.40;;;;;;4974658;28;20406;-85
2022/01/06 04:13:54;;;;;;;0.60;0.20;;;19.60;49.50;;;;;;4941788;28;20054;-86
2022/01/06 04:16:19;;;;;;;1.40;0.30;;;19.50;49.40;;;;;;4993193;28;20809;-85
2022/01/06 04:18:45;;;;;;;0.88;0.20;;;19.50;49.40;;;;;;4993956;28;20042;-86
2022/01/06 04:21:11;;;;;;;0.93;0.30;;;19.50;49.40;;;;;;4993417;28;20046;-85
2022/01/06 04:23:36;;;;;;;1.30;0.30;;;19.60;49.50;;;;;;4993611;28;20088;-85
2022/01/06 04:26:02;;;;;;;0.73;0.28;;;19.50;49.40;;;;;;4993661;28;20128;-85
2022/01/06 04:28:27;;;;;;;0.88;0.20;;;19.50;49.40;;;;;;4992988;28;20081;-85
2022/01/06 04:30:54;;;;;;;1.00;0.20;;;19.50;49.40;;;;;;4992229;28;20060;-85
2022/01/06 04:33:19;;;;;;;1.38;0.30;;;19.50;49.40;;;;;;4993417;28;20049;-85
2022/01/06 04:35:45;;;;;;;1.77;0.30;;;19.50;49.40;;;;;;4993004;28;20112;-86
2022/01/06 04:38:11;;;;;;;0.75;0.20;;;19.50;49.50;;;;;;4992992;28;20096;-85
2022/01/06 04:40:36;;;;;;;1.38;0.35;;;19.50;49.50;;;;;;4993415;28;20042;-85
2022/01/06 04:43:02;;;;;;;1.33;0.38;;;19.50;49.50;;;;;;4991721;28;20069;-85
2022/01/06 04:45:27;;;;;;;1.65;0.30;;;19.50;49.50;;;;;;4993239;28;20486;-85
2022/01/06 04:47:53;;;;;;;1.15;0.20;;;19.50;49.60;;;;;;4992982;28;20067;-85
2022/01/06 04:50:18;;;;;;;1.40;0.40;;;19.50;49.50;;;;;;4992470;28;20046;-86
2022/01/06 04:52:44;;;;;;;2.00;0.25;;;19.50;49.50;;;;;;4993184;28;20579;-85
2022/01/06 04:55:10;;;;;;;1.63;0.30;;;19.60;49.50;;;;;;4993378;28;20034;-86
2022/01/06 04:57:35;;;;;;;1.25;0.30;;;19.60;49.50;;;;;;4992327;28;20111;-86
2022/01/06 05:00:01;;;;;;;1.38;0.50;;;19.50;49.50;;;;;;4993028;28;20061;-86
2022/01/06 05:02:26;;;;;;;0.95;0.22;;;19.60;49.60;;;;;;4992428;28;20041;-86
2022/01/06 05:04:52;;;;;;;1.38;0.20;;;21.20;50.50;;;;;;4993331;28;20085;-89
2022/01/06 05:07:17;;;;;;;0.90;0.10;;;20.60;50.20;;;;;;4994104;28;20050;-87
2022/01/06 05:09:43;;;;;;;0.85;0.30;;;19.60;49.60;;;;;;4992431;28;20046;-87
2022/01/06 05:12:08;;;;;;;0.88;0.28;;;19.60;49.70;;;;;;4992811;28;20137;-87
2022/01/06 05:14:34;;;;;;;1.38;0.22;;;19.60;49.70;;;;;;4992254;28;20042;-87
2022/01/06 05:17:00;;;;;;;1.02;0.20;;;19.60;49.60;;;;;;4992109;28;20453;-87
2022/01/06 05:19:26;;;;;;;1.05;0.20;;;19.60;49.70;;;;;;5010161;28;20050;-87
2022/01/06 05:21:52;;;;;;;2.00;0.20;;;19.70;49.70;;;;;;4992801;28;20052;-87
2022/01/06 05:24:19;;;;;;;0.70;0.25;;;19.70;49.70;;;;;;4991791;28;20054;-87
2022/01/06 05:26:44;;;;;;;1.00;0.25;;;19.70;49.70;;;;;;4992655;28;20057;-86
2022/01/06 05:29:11;;;;;;;1.27;0.20;;;19.70;49.70;;;;;;4783217;28;20078;-85
2022/01/06 05:31:36;;;;;;;1.17;0.30;;;19.70;49.70;;;;;;4729065;28;20821;-83
2022/01/06 05:34:02;;;;;;;0.65;0.20;;;19.80;49.80;;;;;;4693207;28;20188;-86
2022/01/06 05:36:28;;;;;;;0.88;0.17;;;19.80;49.70;;;;;;4738347;28;21190;-86
2022/01/06 05:38:53;;;;;;;1.55;0.30;;;20.30;50.00;;;;;;4903637;29;20614;-86
2022/01/06 05:41:19;;;;;;;1.02;0.20;;;19.90;49.80;;;;;;4914579;29;20139;-86
2022/01/06 05:43:45;;;;;;;0.82;0.20;;;19.90;49.80;;;;;;4888882;29;20138;-86
2022/01/06 05:46:10;;;;;;;0.88;0.20;;;19.90;49.70;;;;;;4913401;29;20063;-87
2022/01/06 05:48:36;;;;;;;1.15;0.30;;;19.90;49.70;;;;;;4913830;29;20385;-87
2022/01/06 05:51:01;;;;;;;3.08;0.40;;;20.00;49.70;;;;;;4913613;29;20055;-89
2022/01/06 05:53:28;;;;;;;0.55;0.13;;;19.90;49.60;;;;;;4913461;29;20058;-88
2022/01/06 05:55:53;;;;;;;0.60;0.10;;;20.00;49.70;;;;;;4914168;29;20121;-88
2022/01/06 05:58:19;;;;;;;0.95;0.20;;;20.00;49.60;;;;;;4914472;29;20055;-88
2022/01/06 06:00:44;;;;;;;0.85;0.20;;;20.00;49.60;;;;;;4922968;28;20058;-88
2022/01/06 06:03:10;;;;;;;0.95;0.28;;;20.00;49.60;;;;;;4610815;28;10000970;-88
2022/01/06 06:05:36;;;;;;;0.88;0.20;;;20.90;50.00;;;;;;4960819;28;20053;-87
2022/01/06 06:08:01;;;;;;;1.00;0.20;;;20.00;49.60;;;;;;4991645;28;20038;-88
2022/01/06 06:10:27;;;;;;;1.38;0.20;;;20.10;49.50;;;;;;4992643;28;20100;-88
2022/01/06 06:12:53;;;;;;;1.52;0.40;;;20.10;49.60;;;;;;4991634;28;20421;-88
2022/01/06 06:15:20;;;;;;;1.17;0.25;;;20.10;49.50;;;;;;4971629;28;20067;-88
2022/01/06 06:17:45;;;;;;;0.95;0.32;;;20.10;49.50;;;;;;4953487;28;20074;-88
2022/01/06 06:20:11;;;;;;;0.82;0.30;;;20.10;49.50;;;;;;4952543;28;20058;-88
2022/01/06 06:22:37;;;;;;;0.80;0.20;;;20.10;49.50;;;;;;4953463;28;20407;-89
2022/01/06 06:25:04;;;;;;;1.52;0.30;;;20.10;49.50;;;;;;4953319;28;20107;-87
2022/01/06 06:27:30;;;;;;;1.15;0.30;;;20.10;49.40;;;;;;4956217;28;20058;-89
2022/01/06 06:29:55;;;;;;;1.15;0.38;;;20.10;49.40;;;;;;4955994;28;20069;-89
2022/01/06 06:32:21;;;;;;;1.60;0.38;;;20.10;49.40;;;;;;4987822;28;20502;-88
2022/01/06 06:34:46;;;;;;;1.23;0.30;;;20.10;49.40;;;;;;4980754;28;20100;-89
2022/01/06 06:37:12;;;;;;;1.20;0.40;;;20.20;49.40;;;;;;4992449;28;20050;-88
2022/01/06 06:39:37;;;;;;;1.23;0.30;;;20.20;49.40;;;;;;4976403;28;20050;-88
2022/01/06 06:42:03;;;;;;;1.10;0.30;;;20.20;49.40;;;;;;4975009;28;20085;-88
2022/01/06 06:44:28;;;;;;;0.88;0.20;;;20.20;49.40;;;;;;4976849;28;20042;-90
2022/01/06 06:46:54;;;;;;;1.15;0.20;;;20.20;49.40;;;;;;4977449;28;20053;-89
2022/01/06 06:49:20;;;;;;;0.70;0.20;;;20.20;49.40;;;;;;4976461;28;20401;-89
2022/01/06 06:51:45;;;;;;;1.40;0.38;;;20.20;49.40;;;;;;4977308;28;20094;-87
2022/01/06 06:54:13;;;;;;;1.73;0.30;;;20.20;50.10;;;;;;4993746;28;20522;-89
2022/01/06 06:56:40;;;;;;;1.33;0.30;;;20.20;49.30;;;;;;4977370;28;20089;-89
2022/01/06 06:59:06;;;;;;;1.67;0.22;;;20.20;49.30;;;;;;4976500;28;20046;-89
2022/01/06 07:01:31;;;;;;;1.00;0.13;;;20.50;49.50;;;;;;4976027;28;20112;-90
2022/01/06 07:03:57;;;;;;;1.95;0.30;;;20.20;49.30;;;;;;4977774;28;20042;-86
2022/01/06 07:06:22;;;;;;;1.52;0.22;;;20.30;49.40;;;;;;4988315;28;20049;-88
2022/01/06 07:08:48;;;;;;;1.00;0.30;;;20.20;49.30;;;;;;4989440;28;20054;-86
2022/01/06 07:11:13;;;;;;;1.45;0.20;;;20.30;49.30;;;;;;4991349;28;20066;-87
2022/01/06 07:13:39;;;;;;;1.45;0.30;;;20.30;49.30;;;;;;4992208;28;20466;-88
2022/01/06 07:16:05;;;;;;;1.73;0.25;;;20.30;49.30;;;;;;4975200;28;20038;-88
2022/01/06 07:18:30;;;;;;;1.35;0.30;;;20.30;49.30;;;;;;4976842;28;20054;-88
2022/01/06 07:20:57;;;;;;;2.25;0.30;;;20.30;49.30;;;;;;4988622;28;20058;-88
2022/01/06 07:23:22;;;;;;;1.50;0.30;;;20.50;49.30;;;;;;4975062;28;20046;-89
2022/01/06 07:25:48;;;;;;;2.65;0.38;;;20.30;49.20;;;;;;4992446;28;20104;-87
2022/01/06 07:28:14;;;;;;;1.83;0.32;;;20.30;49.30;;;;;;4976792;28;20058;-89
2022/01/06 07:30:39;;;;;;;2.08;0.40;;;21.30;49.70;;;;;;4990822;28;20410;-90
2022/01/06 07:33:05;;;;;;;3.53;0.43;;;20.30;49.20;;;;;;4991995;28;20056;-90
2022/01/06 07:35:30;;;;;;;2.25;0.40;;;20.30;49.20;;;;;;5000863;28;20050;-89
2022/01/06 07:37:56;;;;;;;1.75;0.40;;;21.30;49.70;;;;;;4999401;28;20048;-89
2022/01/06 07:40:21;;;;;;;1.73;0.38;;;20.30;49.20;;;;;;4995426;28;20552;-88
2022/01/06 07:42:48;;;;;;;3.28;0.40;;;20.30;49.20;;;;;;4995607;28;20133;-89
2022/01/06 07:45:13;;;;;;;1.42;0.52;;;20.30;49.10;;;;;;4995167;28;20141;-90
2022/01/06 07:47:54;;;;;;;1.38;0.30;;;20.30;49.10;;;;;;4996120;28;20138;-90
2022/01/06 07:50:20;;;;;;;2.08;0.43;;;20.30;49.10;;;;;;4997251;28;20066;-90
2022/01/06 07:52:46;;;;;;;0.65;0.20;;;20.30;49.10;;;;;;5018258;28;20077;-89
2022/01/06 07:55:11;;;;;;;2.05;0.52;;;20.30;49.10;;;;;;4997634;28;20041;-90
2022/01/06 07:57:37;;;;;;;2.70;0.43;;;20.30;49.00;;;;;;4996351;28;20050;-89
2022/01/06 08:00:03;;;;;;;2.25;0.40;;;20.30;49.00;;;;;;4995349;28;20107;-89
2022/01/06 08:02:28;;;;;;;2.67;0.32;;;20.30;49.00;;;;;;4995184;28;20052;-90
2022/01/06 08:04:54;;;;;;;3.15;0.30;;;20.30;49.70;;;;;;5004656;28;20637;-86
2022/01/06 08:07:20;;;;;;;2.30;0.45;;;20.30;49.00;;;;;;4995374;28;20050;-90
2022/01/06 08:09:45;;;;;;;1.77;0.60;;;20.30;49.10;;;;;;4996056;28;20038;-91
2022/01/06 08:12:11;;;;;;;1.85;0.40;;;20.30;49.00;;;;;;4994978;28;20050;-91
2022/01/06 08:14:36;;;;;;;1.27;0.35;;;20.30;49.00;;;;;;4994505;28;20040;-91
2022/01/06 08:17:02;;;;;;;1.08;0.55;;;20.30;49.00;;;;;;5012415;28;20096;-89
2022/01/06 08:19:28;;;;;;;1.23;0.40;;;20.30;49.00;;;;;;5002036;28;20042;-89
2022/01/06 08:21:53;;;;;;;1.88;0.40;;;20.30;49.00;;;;;;5011456;28;20042;-89
2022/01/06 08:24:19;;;;;;;1.83;0.40;;;20.20;49.00;;;;;;5011710;28;20137;-90
2022/01/06 08:26:44;;;;;;;1.52;0.40;;;20.20;49.00;;;;;;5011506;28;20053;-89
2022/01/06 08:29:10;;;;;;;2.08;0.40;;;20.20;48.90;;;;;;5011659;28;20046;-90
2022/01/06 08:31:35;;;;;;;6.90;0.65;;;20.50;49.10;;;;;;5005357;28;20062;-90
2022/01/06 08:34:01;;;;;;;2.55;0.30;;;20.20;49.00;;;;;;4998119;28;20085;-90
2022/01/06 08:36:27;;;;;;;3.60;0.50;;;20.20;49.30;;;;;;4987616;28;20054;-91
2022/01/06 08:38:52;;;;;;;2.33;0.22;;;20.30;49.20;;;;;;4991376;28;20795;-91
2022/01/06 08:41:18;;;;;;;2.28;0.43;;;20.30;49.20;;;;;;4986176;28;20128;-90
2022/01/06 08:43:46;;;;;;;1.45;0.50;;;20.30;49.20;;;;;;4988795;28;20078;-92
2022/01/06 08:46:12;;;;;;;2.30;0.57;;;20.30;49.90;;;;;;4986133;28;20111;-92
2022/01/06 08:48:37;;;;;;;2.88;0.30;;;20.30;49.20;;;;;;5002811;28;20497;-92
2022/01/06 08:51:03;;;;;;;3.03;0.50;;;20.30;49.60;;;;;;4992121;28;20058;-90
2022/01/06 08:53:28;;;;;;;1.33;0.30;;;20.40;49.40;;;;;;4995152;28;20053;-83
2022/01/06 08:55:54;;;;;;;3.60;0.40;;;20.40;49.40;;;;;;4984571;28;20517;-83
2022/01/06 08:58:19;;;;;;;2.30;0.50;;;20.40;49.40;;;;;;4972516;28;20045;-83
2022/01/06 09:00:45;;;;;;;1.88;0.40;;;20.40;49.40;;;;;;4975140;28;20730;-91
2022/01/06 09:03:11;;;;;;;1.92;0.30;;;20.40;49.30;;;;;;4993741;28;20563;-91
2022/01/06 09:05:37;;;;;;;1.63;0.30;;;20.50;49.30;;;;;;4993707;28;20046;-90
2022/01/06 09:08:06;;;;;;;1.35;0.40;;;20.40;49.20;;;;;;4995228;28;20501;-90
2022/01/06 09:10:33;;;;;;;1.60;0.30;;;20.50;49.20;;;;;;4994210;28;20099;-89
2022/01/06 09:13:00;;;;;;;1.75;0.40;;;20.50;49.20;;;;;;5010492;28;20046;-90
2022/01/06 09:15:26;;;;;;;1.58;0.40;;;20.50;49.20;;;;;;4996175;28;20185;-90
2022/01/06 09:17:51;;;;;;;1.80;0.47;;;20.50;49.20;;;;;;4993937;28;20045;-89
2022/01/06 09:20:17;;;;;;;3.38;0.77;;;20.50;49.10;;;;;;4994390;28;20133;-91
2022/01/06 09:22:42;;;;;;;2.22;0.35;;;20.50;49.10;;;;;;4994267;28;20095;-90
2022/01/06 09:25:09;;;;;;;1.23;0.30;;;20.50;49.10;;;;;;4993775;28;20111;-91
2022/01/06 09:27:34;;;;;;;2.30;0.43;;;20.50;49.80;;;;;;4949872;28;20059;-90
2022/01/06 09:30:00;;;;;;;2.22;0.50;;;20.50;49.10;;;;;;5001391;28;20054;-91
2022/01/06 09:32:26;;;;;;;1.88;0.28;;;20.50;49.10;;;;;;4993820;28;20740;-90
2022/01/06 09:34:51;;;;;;;1.42;0.22;;;20.50;49.10;;;;;;4974876;28;20093;-90
2022/01/06 09:37:18;;;;;;;0.93;0.25;;;20.50;49.10;;;;;;4974092;28;20042;-90
2022/01/06 09:39:45;;;;;;;1.65;0.40;;;20.50;49.10;;;;;;4980611;28;20053;-89
2022/01/06 09:42:12;;;;;;;1.70;0.30;;;20.50;49.10;;;;;;4974385;28;20088;-91
2022/01/06 09:44:38;;;;;;;0.82;0.30;;;20.50;49.10;;;;;;4974557;28;20470;-90
2022/01/06 09:47:07;;;;;;;2.25;0.30;;;20.50;49.10;;;;;;4986102;28;20583;-89
2022/01/06 09:49:40;;;;;;;1.58;0.20;;;20.60;49.10;;;;;;4991063;28;20062;-90
2022/01/06 09:52:06;;;;;;;0.82;0.30;;;20.60;49.10;;;;;;4989718;28;20573;-89
2022/01/06 09:54:35;;;;;;;1.70;0.50;;;20.60;49.10;;;;;;4988519;28;20056;-89
2022/01/06 09:57:01;;;;;;;1.63;0.30;;;20.60;49.10;;;;;;4990325;28;20060;-93
2022/01/06 09:59:27;;;;;;;0.90;0.20;;;20.60;49.10;;;;;;4993803;28;20038;-92
2022/01/06 10:01:52;;;;;;;1.58;0.45;;;20.60;49.20;;;;;;4989877;28;20114;-92
2022/01/06 10:04:19;;;;;;;1.98;0.50;;;20.70;49.20;;;;;;4989139;28;20074;-89
2022/01/06 10:06:56;;;;;;;1.88;0.93;;;20.70;49.20;;;;;;4988237;28;20085;-83
2022/01/06 10:09:23;;;;;;;1.02;0.32;;;20.70;49.00;;;;;;4970774;28;20499;-85
2022/01/06 10:11:48;;;;;;;2.80;0.40;;;20.70;49.00;;;;;;4988632;28;20058;-87
2022/01/06 10:14:20;;;;;;;7.90;2.45;;;20.70;49.00;;;;;;4987808;28;20046;-87
2022/01/06 10:16:50;;;;;;;41.08;14.82;;;20.80;49.10;;;;;;4987726;28;20136;-85
2022/01/06 10:19:16;;;;;;;36.30;12.07;;;20.70;49.00;;;;;;4987207;28;20052;-84
2022/01/06 10:21:46;;;;;;;34.33;10.20;;;20.80;49.10;;;;;;4988520;28;20518;-87
2022/01/06 10:24:17;;;;;;;20.65;8.35;;;20.80;49.70;;;;;;4988394;28;20042;-88
2022/01/06 10:26:56;;;;;;;21.27;7.53;;;20.80;49.00;;;;;;4987713;28;20045;-86
2022/01/06 10:29:24;;;;;;;19.42;6.88;;;20.80;49.00;;;;;;4986534;28;20054;-89
2022/01/06 10:31:49;;;;;;;22.45;7.07;;;20.80;49.00;;;;;;4988288;28;20383;-89
2022/01/06 10:34:15;;;;;;;19.42;6.82;;;20.90;49.00;;;;;;4988599;28;20100;-85
2022/01/06 10:36:41;;;;;;;121.00;48.15;;;21.30;49.20;;;;;;4988814;28;20058;-88
2022/01/06 10:39:08;;;;;;;128.38;48.47;;;20.90;49.00;;;;;;4988980;28;20050;-89
2022/01/06 10:41:34;;;;;;;174.23;70.57;;;20.90;49.00;;;;;;4987829;28;20762;-87
2022/01/06 10:44:00;;;;;;;289.20;102.13;;;21.00;49.00;;;;;;4988217;28;20069;-87
2022/01/06 10:46:31;;;;;;;204.85;76.20;;;21.00;49.00;;;;;;4982527;28;20039;-87
2022/01/06 10:48:58;;;;;;;222.57;82.97;;;21.00;49.10;;;;;;4967746;28;20061;-88
2022/01/06 10:51:41;;;;;;;152.50;59.60;;;21.00;49.00;;;;;;4982148;28;20050;-87
2022/01/06 10:54:22;;;;;;;152.02;58.10;;;22.20;49.60;;;;;;4976683;28;20088;-85
2022/01/06 10:56:57;;;;;;;130.15;50.90;;;21.10;49.00;;;;;;4987373;28;20549;-87
2022/01/06 10:59:27;;;;;;;134.60;50.80;;;21.10;48.90;;;;;;4986955;28;20054;-87
2022/01/06 11:01:52;;;;;;;125.00;49.40;;;21.10;48.80;;;;;;4987452;28;20042;-87
2022/01/06 11:04:18;;;;;;;122.55;49.53;;;21.20;48.90;;;;;;4987603;28;20113;-88
2022/01/06 11:06:43;;;;;;;121.38;47.47;;;21.20;48.80;;;;;;4987972;28;20141;-87
2022/01/06 11:09:11;;;;;;;113.35;48.17;;;21.20;48.80;;;;;;4971232;28;20497;-87
2022/01/06 11:14:24;;;;;;;94.25;40.88;;;21.30;48.70;;;;;;4991190;28;20132;-88
2022/01/06 11:16:50;;;;;;;102.70;43.80;;;21.30;48.60;;;;;;4979951;28;20103;-87
2022/01/06 11:19:15;;;;;;;108.70;43.28;;;21.30;48.50;;;;;;4991518;28;20042;-88
2022/01/06 11:21:44;;;;;;;94.32;41.22;;;21.30;48.40;;;;;;4974600;28;20058;-87
2022/01/06 11:24:17;;;;;;;104.88;42.33;;;21.30;48.40;;;;;;4990388;28;20046;-87
2022/01/06 11:26:44;;;;;;;96.32;39.65;;;21.30;48.40;;;;;;4981016;28;20058;-86
2022/01/06 11:29:11;;;;;;;94.80;39.20;;;21.30;48.40;;;;;;4974997;28;20042;-86
2022/01/06 11:31:40;;;;;;;87.53;38.83;;;21.40;48.50;;;;;;4990135;28;20077;-86
2022/01/06 11:34:16;;;;;;;82.97;36.17;;;21.40;48.50;;;;;;4990176;28;20038;-87
2022/01/06 11:36:42;;;;;;;88.57;37.17;;;21.40;48.50;;;;;;4990334;28;20131;-88
2022/01/06 11:39:08;;;;;;;85.15;36.75;;;21.40;48.40;;;;;;4991165;28;20095;-87
2022/01/06 11:41:43;;;;;;;75.75;33.50;;;21.40;48.30;;;;;;4991002;28;20073;-87
2022/01/06 11:44:35;;;;;;;75.18;35.38;;;21.40;48.30;;;;;;4990903;28;20418;-87
2022/01/06 11:47:02;;;;;;;80.95;35.70;;;21.40;48.20;;;;;;4987113;28;20066;-87
2022/01/06 11:49:39;;;;;;;75.25;31.92;;;21.40;48.20;;;;;;4978394;28;20495;-85
2022/01/06 11:52:15;;;;;;;50.03;23.05;;;21.40;48.10;;;;;;4953568;28;20066;-85
2022/01/06 11:54:49;;;;;;;62.15;28.08;;;21.40;47.70;;;;;;4951484;29;20682;-87
2022/01/06 11:57:25;;;;;;;62.28;27.48;;;21.40;47.90;;;;;;4951690;29;20058;-86
2022/01/06 11:59:51;;;;;;;56.63;25.40;;;21.40;47.90;;;;;;4954703;28;20066;-85
2022/01/06 12:02:21;;;;;;;57.88;25.67;;;21.40;47.90;;;;;;4970846;28;20050;-86
2022/01/06 12:04:59;;;;;;;55.75;24.65;;;21.40;47.90;;;;;;4970401;28;20074;-86
2022/01/06 12:07:25;;;;;;;51.38;22.08;;;21.40;47.90;;;;;;4972239;28;20052;-85
2022/01/06 12:10:06;;;;;;;53.03;23.02;;;21.40;47.70;;;;;;4967158;28;20158;-84
2022/01/06 12:12:33;;;;;;;51.90;21.80;;;21.40;47.70;;;;;;4970432;28;20046;-84
2022/01/06 12:15:13;;;;;;;48.28;20.92;;;21.40;47.80;;;;;;4971405;28;20133;-84
2022/01/06 12:17:54;;;;;;;44.72;19.95;;;21.50;47.90;;;;;;4956054;28;20051;-84
2022/01/06 12:20:26;;;;;;;41.60;18.42;;;21.40;47.90;;;;;;4951651;28;20073;-87
2022/01/06 12:22:52;;;;;;;40.67;18.85;;;21.40;47.90;;;;;;4968142;28;20062;-85
2022/01/06 12:25:25;;;;;;;43.03;18.08;;;21.40;48.00;;;;;;4969871;28;20073;-85
2022/01/06 12:27:53;;;;;;;38.40;17.98;;;21.40;48.00;;;;;;4970146;28;20073;-85
2022/01/06 12:30:22;;;;;;;30.15;14.45;;;21.40;47.70;;;;;;4978888;28;20054;-86
2022/01/06 12:33:06;;;;;;;29.45;11.95;;;21.40;47.30;;;;;;4937711;28;20167;-85
2022/01/06 12:35:45;;;;;;;26.15;11.68;;;21.40;47.10;;;;;;4960931;28;20073;-86
2022/01/06 12:38:11;;;;;;;25.38;11.13;;;21.80;47.20;;;;;;4968225;28;20043;-84
2022/01/06 12:40:39;;;;;;;26.67;11.20;;;21.40;47.10;;;;;;4970178;28;20070;-83
2022/01/06 12:43:23;;;;;;;31.55;12.52;;;21.30;46.90;;;;;;4969903;28;20138;-83
2022/01/06 12:46:07;;;;;;;26.95;11.35;;;21.30;47.00;;;;;;4975458;28;20589;-83
2022/01/06 12:48:44;;;;;;;23.38;10.30;;;21.30;47.10;;;;;;4977608;28;20057;-83
2022/01/06 12:51:21;;;;;;;29.02;11.60;;;21.30;47.00;;;;;;4986242;28;20058;-83